Latest Coastal Weather Observations for Eucla

IDS60701

Issued at 11:41 pm CDT Thursday 23 November 2017 (issued every 10 minutes, with the page automatically refreshed every 10 minutes)

About coastal observations | Map of coastal stations | Coastal observations for SA | Marine services | Other Formats
Station Details ID: 011003 Name: EUCLA Lat: -31.68 Lon: 128.90 Height: 93.1 m
Data from the previous 72 hours. | See also: Recent months at Eucla
Date/Time
CDT
Temp
°C
Wind Pressure Rain since
9am
mm
Weather Cloud Vis
km
Sea
Height
m
Swell
Dir  Spd
kts
Gust
kts
hPa Trend Height
m
Period
s
Dir
23/11:30pm 15.8 SSE 9 12 1017.7 - 0.2 - - - - - - -
23/11:00pm 15.8 SSE 9 12 1017.7 - 0.2 - - - - - - -
23/10:30pm 15.9 SSE 9 13 1017.6 - 0.2 - - - - - - -
23/10:00pm 16.1 SSE 10 16 1017.3 - 0.2 - - - - - - -
23/09:30pm 16.1 SSE 8 13 1017.3 - 0.2 - - - - - - -
23/09:00pm 16.1 SSE 9 14 1017.2 - 0.2 - - - - - - -
23/08:30pm 16.3 SSE 9 13 1017.0 - 0.2 - - - - - - -
23/08:00pm 16.2 S 8 16 1016.9 - 0.2 - - - - - - -
23/07:30pm 16.4 SSE 10 15 1016.6 - 0.2 - - - - - - -
23/07:00pm 16.2 S 9 15 1016.5 - 0.2 - - - - - - -
23/06:30pm 16.6 S 10 16 1016.5 - 0.2 - - - - - - -
23/06:00pm 16.6 S 9 13 1016.6 - 0.2 - - - - - - -
23/05:30pm 16.7 S 11 18 1016.7 - 0.2 Drizzle Cloudy 5 - - - -
23/05:00pm 16.7 S 10 16 1016.8 - 0.2 - - - - - - -
23/04:30pm 16.7 S 11 16 1016.9 - 0.2 - - - - - - -
23/04:00pm 16.2 S 10 16 1017.0 - 0.2 - - - - - - -
23/03:30pm 16.0 S 11 16 1017.2 - 0.2 - - - - - - -
23/03:00pm 16.2 S 9 14 1017.2 - 0.2 - - - - - - -
23/02:30pm 16.5 S 11 17 1017.2 - 0.0 - - - - - - -
23/02:00pm 16.4 SSW 11 17 1017.4 - 0.0 - - - - - - -
23/01:30pm 17.2 SSW 11 19 1017.5 - 0.0 - - - - - - -
23/01:00pm 17.1 SSW 10 15 1017.5 - 0.0 - - - - - - -
23/12:30pm 16.8 S 10 16 1017.6 - 0.0 - - - - - - -
23/12:00pm 16.3 S 10 17 1017.7 - 0.0 - - - - - - -
23/11:30am 16.3 SSW 10 17 1017.7 - 1.8 Drizzle Cloudy 1 - - - -
23/11:00am 16.1 SSW 10 17 1017.6 - 1.6 - - - - - - -
23/10:30am 16.2 S 10 17 1017.5 - 1.4 - - - - - - -
23/10:00am 16.1 SSW 10 16 1017.3 - 1.4 - - - - - - -
23/09:30am 15.9 SSW 10 18 1017.1 - 1.2 - - - - - - -
23/09:00am 16.0 SSW 9 16 1016.9 - 1.2 - - - - - - -
23/08:30am 15.5 SSW 9 15 1016.5 - 1.2 - - - - - - -
23/08:00am 15.3 SSW 8 12 1016.5 - 1.2 - - - - - - -
23/07:30am 15.1 S 7 10 1016.1 - 1.2 - - - - - - -
23/07:00am 15.0 S 9 15 1015.9 - 1.2 - - - - - - -
23/06:30am 15.1 S 9 16 1015.5 - 1.2 - - - - - - -
23/06:00am 15.7 S 9 15 1015.1 - 0.2 - - - - - - -
23/05:30am 15.9 SSW 9 14 1014.9 - 0.0 - - - - - - -
23/05:00am 16.2 SSW 10 16 1015.0 - 0.0 - - - - - - -
23/04:30am 16.2 SSW 11 16 1015.1 - 0.0 - - - - - - -
23/04:00am 16.3 SSW 10 15 1015.1 - 0.0 - - - - - - -
23/03:30am 16.0 SSW 11 19 1015.1 - 0.0 - - - - - - -
23/03:00am 16.2 SSW 12 17 1015.2 - 0.0 - - - - - - -
23/02:30am 16.3 S 12 17 1015.3 - 0.0 - - - - - - -
23/02:00am 16.1 SSW 12 18 1015.5 - 0.0 - - - - - - -
23/01:30am 16.3 S 13 19 1015.7 - 0.0 - - - - - - -
23/01:00am 16.4 SSW 12 18 1015.9 - 0.0 - - - - - - -
23/12:30am 16.3 SSW 10 18 1016.0 - 0.0 - - - - - - -
23/12:00am 16.7 SSW 12 18 1016.1 - 0.0 - - - - - - -
 
Date/Time
CDT
Temp
°C
Wind Pressure Rain since
9am
mm
Weather Cloud Vis
km
Sea
Height
m
Swell
Dir  Spd
kts
Gust
kts
hPa Trend Height
m
Period
s
Dir
22/11:30pm 16.4 SSW 9 15 1016.2 - 0.0 - - - - - - -
22/11:00pm 16.4 SSW 13 19 1016.1 - 0.0 - - - - - - -
22/10:30pm 16.3 SSW 14 22 1016.0 - 0.0 - - - - - - -
22/10:00pm 16.7 SSW 11 18 1015.9 - 0.0 - - - - - - -
22/09:30pm 16.4 SSW 12 18 1015.7 - 0.0 - - - - - - -
22/09:00pm 16.5 SSW 10 16 1015.4 - 0.0 - - - - - - -
22/08:30pm 16.8 SSW 13 19 1015.3 - 0.0 - - - - - - -
22/08:00pm 17.0 SSW 13 21 1015.1 - 0.0 - - - - - - -
22/07:30pm 17.3 SW 14 21 1014.9 - 0.0 - - - - - - -
22/07:00pm 17.9 SSW 13 21 1014.7 - 0.0 - - - - - - -
22/06:30pm 18.6 SSW 14 23 1014.6 - 0.0 - - - - - - -
22/06:00pm 18.3 SSW 14 21 1014.8 - 0.0 - - - - - - -
22/05:30pm 19.4 SSW 13 22 1014.8 - 0.0 Fine Partly cloudy 40 - - - -
22/05:00pm 19.5 SSW 15 21 1014.9 - 0.0 - - - - - - -
22/04:30pm 20.0 SW 14 21 1015.0 - 0.0 - - - - - - -
22/04:00pm 18.8 SSW 14 20 1015.1 - 0.0 - - - - - - -
22/03:30pm 19.4 SSW 14 20 1015.1 - 0.0 - - - - - - -
22/03:00pm 19.0 SSW 16 23 1015.0 - 0.0 - - - - - - -
22/02:30pm 19.7 SSW 15 25 1015.3 - 0.0 - - - - - - -
22/02:21pm 20.1 SSW 15 25 1015.3 - 0.0 - - - - - - -
22/02:00pm 20.5 SSW 14 22 1015.5 - 0.0 - - - - - - -
22/01:30pm 20.2 SW 16 22 1015.6 - 0.0 - - - - - - -
22/01:00pm 19.4 SSW 13 21 1015.7 - 0.0 - - - - - - -
22/12:30pm 19.5 SW 14 19 1015.8 - 0.0 - - - - - - -
22/12:00pm 19.6 SSW 15 23 1015.9 - 0.0 - - - - - - -
22/11:30am 19.0 SSW 14 20 1016.0 - 2.0 Fine Partly cloudy 40 - - - -
22/11:00am 17.6 SW 13 20 1016.0 - 2.0 - - - - - - -
22/10:30am 17.0 SW 13 20 1016.1 - 2.0 - - - - - - -
22/10:00am 18.1 SW 14 21 1015.9 - 2.0 - - - - - - -
22/09:30am 17.9 SSW 12 18 1015.7 - 2.0 - - - - - - -
22/09:00am 17.5 SSW 13 20 1015.6 - 2.0 - - - - - - -
22/08:30am 16.5 SSW 12 19 1015.4 - 2.0 - - - - - - -
22/08:00am 16.3 SSW 13 19 1015.2 - 2.0 - - - - - - -
22/07:30am 16.3 SSW 10 18 1015.0 - 2.0 - - - - - - -
22/07:00am 16.0 SSW 12 18 1014.9 - 2.0 - - - - - - -
22/06:30am 16.0 SSW 13 19 1014.7 - 2.0 - - - - - - -
22/06:00am 15.8 SSW 13 21 1014.4 - 2.0 - - - - - - -
22/05:30am 15.6 SSW 13 19 1014.2 - 2.0 Recent precip. - - - - - -
22/05:00am 15.8 SSW 12 20 1014.0 - 1.8 - - - - - - -
22/04:30am 15.9 SSW 13 20 1013.8 - 1.8 - - - - - - -
22/04:00am 16.1 SSW 12 17 1013.9 - 1.8 - - - - - - -
22/03:30am 16.0 SSW 13 19 1013.6 - 1.8 - - - - - - -
22/03:00am 16.1 SSW 12 18 1013.9 - 1.8 - - - - - - -
22/02:30am 16.0 SSW 13 20 1014.0 - 1.8 Recent precip. - - - - - -
22/02:00am 16.0 SSW 12 19 1014.2 - 1.8 - - - - - - -
22/01:30am 16.2 SSW 12 19 1014.5 - 1.4 - - - - - - -
22/01:00am 16.5 SSW 11 20 1014.7 - 0.8 - - - - - - -
22/12:30am 16.6 S 10 17 1014.8 - 0.6 - - - - - - -
22/12:00am 17.1 SSW 14 23 1014.5 - 0.0 - - - - - - -
 
Date/Time
CDT
Temp
°C
Wind Pressure Rain since
9am
mm
Weather Cloud Vis
km
Sea
Height
m
Swell
Dir  Spd
kts
Gust
kts
hPa Trend Height
m
Period
s
Dir
21/11:30pm 17.0 S 12 20 1014.3 - 0.0 - - - - - - -
21/11:00pm 17.1 SSW 13 20 1015.0 - 0.0 - - - - - - -
21/10:30pm 17.0 SSW 15 24 1014.0 - 0.0 - - - - - - -
21/10:00pm 17.0 SSW 13 19 1013.6 - 0.0 - - - - - - -
21/09:30pm 17.1 S 13 19 1013.2 - 0.0 - - - - - - -
21/09:00pm 17.3 S 12 19 1012.5 - 0.0 - - - - - - -
21/08:30pm 17.4 S 12 19 1012.7 - 0.0 - - - - - - -
21/08:00pm 17.3 S 13 20 1012.5 - 0.0 - - - - - - -
21/07:30pm 17.3 S 13 20 1012.0 - 0.0 - - - - - - -
21/07:00pm 17.9 S 14 21 1011.6 - 0.0 - - - - - - -
21/06:30pm 18.9 S 13 20 1011.1 - 0.0 - - - - - - -
21/06:00pm 18.5 S 13 19 1011.1 - 0.0 - - - - - - -
21/05:30pm 18.5 S 13 20 1011.1 - 0.0 Haze Cloudy 20 - - - -
21/05:00pm 19.4 S 15 21 1010.9 - 0.0 - - - - - - -
21/04:30pm 19.8 S 15 21 1010.7 - 0.0 - - - - - - -
21/04:00pm 20.7 S 14 22 1010.7 - 0.0 - - - - - - -
21/03:30pm 21.1 SSW 14 20 1010.9 - 0.0 - - - - - - -
21/03:00pm 20.4 SSW 13 20 1010.8 - 0.0 - - - - - - -
21/02:30pm 21.9 SSW 14 19 1010.7 - 0.0 - - - - - - -
21/02:00pm 22.0 S 12 19 1010.8 - 0.0 - - - - - - -
21/01:30pm 22.0 SSW 12 18 1010.9 - 0.0 - - - - - - -
21/01:00pm 22.1 S 11 16 1011.0 - 0.0 - - - - - - -
21/12:30pm 21.6 SSW 9 13 1011.2 - 0.0 - - - - - - -
21/12:00pm 21.8 SSE 7 9 1010.9 - 0.0 - - - - - - -
21/11:30am 21.3 SSE 6 9 1010.7 - 0.0 - - - - - - -
21/11:00am 20.4 SSE 6 8 1010.7 - 0.0 - - - - - - -
21/10:30am 20.5 S 6 8 1010.7 - 0.0 - - - - - - -
21/10:00am 18.8 SSE 5 7 1010.6 - 0.0 - - - - - - -
21/09:30am 17.7 SSW 5 7 1010.8 - 0.0 - - - - - - -
21/09:00am 16.5 SE 5 6 1010.7 - 0.0 - - - - - - -
21/08:30am 16.1 S 5 7 1010.8 - 0.0 - - - - - - -
21/08:00am 15.9 SSE 6 8 1010.5 - 0.0 - - - - - - -
21/07:30am 15.8 SE 5 7 1010.1 - 0.0 - - - - - - -
21/07:00am 15.7 SE 6 7 1009.8 - 0.0 - - - - - - -
21/06:30am 15.7 SE 6 10 1009.4 - 0.0 - - - - - - -
21/06:00am 15.7 ESE 6 8 1009.5 - 0.0 - - - - - - -
21/05:30am 15.9 SE 7 9 1009.4 - 0.0 - - - - - - -
21/05:00am 15.9 SE 6 10 1009.3 - 0.0 - - - - - - -
21/04:30am 15.8 SE 8 10 1009.4 - 0.0 - - - - - - -
21/04:00am 16.4 SE 7 10 1009.8 - 0.0 - - - - - - -
21/03:30am 16.5 SE 6 7 1010.1 - 0.0 - - - - - - -
21/03:00am 16.5 S 5 5 1010.6 - 0.0 - - - - - - -
21/02:30am 16.6 SSW 5 6 1010.8 - 0.0 - - - - - - -

Other Formats:

Comma delimited format used in spreadsheet applications
http://www.bom.gov.au/fwo/IDS60701/IDS60701.94647.axf

JavaScript Object Notation format (JSON) in row-major order
http://www.bom.gov.au/fwo/IDS60701/IDS60701.94647.json